Mount Pearl, Canada
Current Conditions -  °F | °C
As of 1:00 AM on Monday 26 Jan 2015 (Local Time) from CYYT Reporting Station
Broken Clouds Broken Clouds  
Wind Chill: -6°   Ceiling: 2300
Heat Index:   Visibility: 15mi
Dew Point: -2°   Wind: 28mph
Humidity: 81%   Direction: 220°SW
Pressure: 29.42"   Gusts: 38mph
Location:  47.52°N, 52.82°W
Report Text: CYYT 260400Z 22024G33KT 15SM BKN023 01/M02 A2942 RMK SC7 SLP968
Loading
Personal Weather Stations






























Interactive Weather Map New forecast layout! Learn more

10-Day Weather Forecast

Advertisements
Track Severe Weather on mobile